createdAt,value
2023-01-12T00:04:55.004Z,2.07
2023-01-12T00:10:02.474Z,2.13
2023-01-12T00:15:11.903Z,2.14
2023-01-12T00:20:19.936Z,2.14
2023-01-12T00:25:27.721Z,2.12
2023-01-12T00:30:35.182Z,2.09
2023-01-12T00:35:42.630Z,2.15
2023-01-12T00:40:50.452Z,2.22
2023-01-12T00:45:58.227Z,2.27
2023-01-12T00:51:07.573Z,2.28
2023-01-12T00:56:18.970Z,2.23
2023-01-12T01:01:27.692Z,2.18
2023-01-12T01:06:35.311Z,2.18
2023-01-12T01:11:43.020Z,2.20
2023-01-12T01:16:51.150Z,2.23
2023-01-12T01:22:01.474Z,2.26
2023-01-12T01:27:09.796Z,2.28
2023-01-12T01:32:17.212Z,2.27
2023-01-12T01:37:25.752Z,2.25
2023-01-12T01:42:33.476Z,2.28
2023-01-12T01:47:46.257Z,2.34
2023-01-12T01:52:57.524Z,2.38
2023-01-12T01:58:10.495Z,2.40
2023-01-12T02:03:22.322Z,2.41
2023-01-12T02:08:36.439Z,2.44
2023-01-12T02:14:02.415Z,2.52
2023-01-12T02:19:29.533Z,2.65
2023-01-12T02:24:57.046Z,2.75
2023-01-12T02:30:40.095Z,2.79
2023-01-12T02:36:02.546Z,2.82
2023-01-12T02:41:43.326Z,2.85
2023-01-12T02:46:54.297Z,2.88
2023-01-12T02:52:07.086Z,2.90
2023-01-12T02:57:15.840Z,2.98
2023-01-12T03:02:26.333Z,2.98
2023-01-12T03:07:47.507Z,2.95
2023-01-12T03:12:58.612Z,2.94
2023-01-12T03:18:10.293Z,2.96
2023-01-12T03:23:23.438Z,2.99
2023-01-12T03:28:37.971Z,3.03
2023-01-12T03:33:46.966Z,3.02
2023-01-12T03:39:04.198Z,2.98
2023-01-12T03:44:20.802Z,2.97
2023-01-12T03:49:37.471Z,2.99
2023-01-12T03:54:48.009Z,3.03
2023-01-12T04:00:00.667Z,3.08
2023-01-12T04:05:11.093Z,3.09
2023-01-12T04:10:19.366Z,3.10
2023-01-12T04:15:28.058Z,3.12
2023-01-12T04:20:35.675Z,3.16
2023-01-12T04:25:43.435Z,3.23
2023-01-12T04:30:51.005Z,3.27
2023-01-12T04:35:59.743Z,3.29
2023-01-12T04:41:09.095Z,3.32
2023-01-12T04:46:17.864Z,3.32
2023-01-12T04:51:26.418Z,3.33
2023-01-12T04:56:34.335Z,3.39
2023-01-12T05:01:42.609Z,3.45
2023-01-12T05:06:50.127Z,3.50
2023-01-12T05:11:57.605Z,3.54
2023-01-12T05:17:05.633Z,3.56
2023-01-12T05:22:22.805Z,3.60
2023-01-12T05:27:31.308Z,3.63
2023-01-12T05:32:42.616Z,3.66
2023-01-12T05:37:50.787Z,3.70
2023-01-12T05:43:16.394Z,3.74
2023-01-12T05:48:24.255Z,3.77
2023-01-12T05:53:32.903Z,3.76
2023-01-12T06:04:38.378Z,3.75
2023-01-12T06:09:46.261Z,3.73
2023-01-12T06:14:54.366Z,3.73
2023-01-12T06:20:02.448Z,3.72
2023-01-12T06:25:12.545Z,3.67
2023-01-12T06:30:23.747Z,3.62
2023-01-12T06:35:34.000Z,3.63
2023-01-12T06:40:41.246Z,3.68
2023-01-12T06:45:48.928Z,3.74
2023-01-12T06:51:03.281Z,3.75
2023-01-12T06:56:11.050Z,3.79
2023-01-12T07:01:18.592Z,3.84
2023-01-12T07:09:27.877Z,3.97
2023-01-12T07:14:35.495Z,3.99
2023-01-12T07:19:43.873Z,4.03
2023-01-12T07:24:51.727Z,4.01
2023-01-12T07:29:59.851Z,3.97
2023-01-12T07:35:09.967Z,3.98
2023-01-12T07:40:19.775Z,4.04
2023-01-12T07:45:29.125Z,4.12
2023-01-12T07:50:37.427Z,4.19
2023-01-12T07:55:46.085Z,4.22
2023-01-12T08:00:53.692Z,4.21
2023-01-12T08:06:03.429Z,4.23
2023-01-12T08:11:12.333Z,4.28
2023-01-12T08:16:26.721Z,4.33
2023-01-12T08:21:45.421Z,4.39
2023-01-12T08:26:57.483Z,4.48
2023-01-12T08:37:17.776Z,4.62
2023-01-12T08:42:30.856Z,4.71
2023-01-12T08:47:42.661Z,4.78
2023-01-12T08:52:50.332Z,4.83
2023-01-12T08:57:59.509Z,4.86
2023-01-12T09:03:07.365Z,4.90
2023-01-12T09:08:16.280Z,4.97
2023-01-12T09:13:25.152Z,5.03
2023-01-12T09:18:33.074Z,5.04
2023-01-12T09:23:41.578Z,5.03
2023-01-12T09:28:49.212Z,4.99
2023-01-12T09:33:57.729Z,4.95
2023-01-12T09:39:06.045Z,4.92
2023-01-12T09:44:40.434Z,4.97
2023-01-12T09:50:01.327Z,5.06
2023-01-12T09:55:20.502Z,5.17
2023-01-12T10:00:29.531Z,5.28
2023-01-12T10:05:46.416Z,5.37
2023-01-12T10:11:06.439Z,5.44
2023-01-12T10:16:23.741Z,5.56
2023-01-12T10:21:33.831Z,5.71
2023-01-12T10:26:46.418Z,5.84
2023-01-12T10:31:53.782Z,5.99
2023-01-12T10:37:10.746Z,6.12
2023-01-12T10:42:40.065Z,6.29
2023-01-12T10:47:50.832Z,6.48
2023-01-12T10:53:04.083Z,6.65
2023-01-12T10:58:24.325Z,6.79
2023-01-12T11:03:38.453Z,6.93
2023-01-12T11:08:49.365Z,7.05
2023-01-12T11:14:00.468Z,7.18
2023-01-12T11:19:29.048Z,7.32
2023-01-12T11:24:43.639Z,7.45
2023-01-12T11:30:00.435Z,7.51
2023-01-12T11:35:29.652Z,7.57
2023-01-12T11:40:40.029Z,7.62
2023-01-12T11:45:55.197Z,7.64
2023-01-12T11:51:03.928Z,7.67
2023-01-12T11:56:25.960Z,7.67
2023-01-12T12:01:44.957Z,7.66
2023-01-12T12:07:05.359Z,7.63
2023-01-12T12:12:27.363Z,7.62
2023-01-12T12:17:44.265Z,7.61
2023-01-12T12:23:07.064Z,7.59
2023-01-12T12:28:30.717Z,7.54
2023-01-12T12:34:00.692Z,7.54
2023-01-12T12:39:29.205Z,7.59
2023-01-12T12:45:08.892Z,7.67
2023-01-12T12:50:22.487Z,7.71
2023-01-12T12:55:31.319Z,7.74
2023-01-12T13:00:42.996Z,7.76
2023-01-12T13:06:11.500Z,7.77
2023-01-12T13:11:19.259Z,7.76
2023-01-12T13:16:49.809Z,7.77
2023-01-12T13:22:19.679Z,7.77
2023-01-12T13:27:56.163Z,7.74
2023-01-12T13:33:16.861Z,7.74
2023-01-12T13:38:40.833Z,7.73
2023-01-12T13:43:55.211Z,7.71
2023-01-12T13:49:03.970Z,7.68
2023-01-12T13:54:16.115Z,7.65
2023-01-12T13:59:26.462Z,7.61
2023-01-12T14:04:58.023Z,7.56
2023-01-12T14:10:21.441Z,7.50
2023-01-12T14:15:56.517Z,7.44
2023-01-12T14:21:04.892Z,7.38
2023-01-12T14:26:23.089Z,7.28
2023-01-12T14:31:40.614Z,7.19
2023-01-12T14:36:48.924Z,7.10
2023-01-12T14:42:16.211Z,7.09
2023-01-12T14:47:33.785Z,7.05
2023-01-12T14:52:47.124Z,6.96
2023-01-12T14:57:57.257Z,6.88
2023-01-12T15:03:14.886Z,6.77
2023-01-12T15:08:26.979Z,6.64
2023-01-12T15:13:36.263Z,6.51
2023-01-12T15:19:02.732Z,6.38
2023-01-12T15:24:40.621Z,6.26
2023-01-12T15:29:46.657Z,6.15
2023-01-12T15:34:55.267Z,6.04
2023-01-12T15:47:31.278Z,5.82
2023-01-12T15:52:35.478Z,5.67
2023-01-12T15:57:39.749Z,5.56
2023-01-12T16:02:47.720Z,5.42
2023-01-12T16:07:52.484Z,5.31
2023-01-12T16:12:59.326Z,5.17
2023-01-12T16:18:03.433Z,5.05
2023-01-12T16:23:07.405Z,4.95
2023-01-12T16:28:11.420Z,4.84
2023-01-12T16:33:17.338Z,4.75
2023-01-12T16:38:21.936Z,4.69
2023-01-12T16:43:29.670Z,4.62
2023-01-12T16:48:34.846Z,4.51
2023-01-12T16:53:41.133Z,4.41
2023-01-12T16:58:48.000Z,4.33
2023-01-12T17:03:57.423Z,4.25
2023-01-12T17:09:02.611Z,4.16
2023-01-12T17:14:22.390Z,4.07
2023-01-12T17:19:29.743Z,4.03
2023-01-12T17:24:35.364Z,4.01
2023-01-12T17:29:39.892Z,4.00
2023-01-12T17:34:47.409Z,3.95
2023-01-12T17:39:52.562Z,3.86
2023-01-12T17:54:41.676Z,3.68
2023-01-12T17:59:50.226Z,3.56
2023-01-12T18:04:57.598Z,3.43
2023-01-12T18:10:05.169Z,3.33
2023-01-12T18:15:14.702Z,3.28
2023-01-12T18:20:22.475Z,3.28
2023-01-12T18:25:29.933Z,3.25
2023-01-12T18:30:37.615Z,3.22
2023-01-12T18:35:43.128Z,3.20
2023-01-12T18:41:10.605Z,3.18
2023-01-12T18:46:18.250Z,3.11
2023-01-12T18:51:43.293Z,3.00
2023-01-12T18:56:52.793Z,2.91
2023-01-12T19:02:00.101Z,2.87
2023-01-12T19:07:07.394Z,2.84
2023-01-12T19:12:13.213Z,2.77
2023-01-12T19:17:34.284Z,2.76
2023-01-12T19:22:59.269Z,2.74
2023-01-12T19:28:24.599Z,2.75
2023-01-12T19:33:31.623Z,2.75
2023-01-12T19:38:39.546Z,2.72
2023-01-12T19:43:49.578Z,2.70
2023-01-12T19:48:56.838Z,2.67
2023-01-12T19:54:04.089Z,2.70
2023-01-12T20:02:31.854Z,2.79
2023-01-12T20:07:39.503Z,2.79
2023-01-12T20:12:46.814Z,2.77
2023-01-12T20:17:56.784Z,2.76
2023-01-12T20:23:03.946Z,2.72
2023-01-12T20:28:09.712Z,2.64
2023-01-12T20:33:18.971Z,2.56
2023-01-12T20:38:26.710Z,2.51
2023-01-12T20:43:34.525Z,2.44
2023-01-12T20:48:42.925Z,2.42
2023-01-12T20:53:50.292Z,2.48
2023-01-12T20:58:58.202Z,2.57
2023-01-12T21:04:05.351Z,2.69
2023-01-12T21:09:12.850Z,2.82
2023-01-12T21:14:19.805Z,2.94
2023-01-12T21:19:27.221Z,3.10
2023-01-12T21:24:34.684Z,3.26
2023-01-12T21:29:41.839Z,3.39
2023-01-12T21:34:49.247Z,3.50
2023-01-12T21:39:56.717Z,3.59
2023-01-12T21:45:04.143Z,3.66
2023-01-12T21:50:13.553Z,3.72
2023-01-12T21:55:20.843Z,3.74
2023-01-12T22:00:26.573Z,3.74
2023-01-12T22:05:34.721Z,3.74
2023-01-12T22:10:42.261Z,3.74
2023-01-12T22:15:51.150Z,3.75
2023-01-12T22:21:03.920Z,3.78
2023-01-12T22:26:13.326Z,3.79
2023-01-12T22:31:23.018Z,3.78
2023-01-12T22:36:32.192Z,3.66
2023-01-12T22:41:42.162Z,3.53
2023-01-12T22:46:49.349Z,3.45
2023-01-12T22:51:55.879Z,3.40
2023-01-12T22:57:03.183Z,3.36
2023-01-12T23:02:24.419Z,3.33
2023-01-12T23:07:32.054Z,3.26
2023-01-12T23:12:39.235Z,3.15
2023-01-12T23:17:45.054Z,3.04
2023-01-12T23:22:53.645Z,2.95
2023-01-12T23:28:01.546Z,2.85
2023-01-12T23:33:09.310Z,2.74
2023-01-12T23:38:18.123Z,2.65
2023-01-12T23:43:25.969Z,2.55
2023-01-12T23:48:34.466Z,2.43
2023-01-12T23:53:42.048Z,2.30
2023-01-12T23:58:49.547Z,2.19
